View Sortable Currents For Network
ASOSCoCoRaHSCOOPCellular COOPDCPISU Soil Moisture
OtherSCANMy FavoritesBy StateRWISRWIS Surface
RWIS TrafficRWIS SoilBy NWS WFOUSCRN

Current SCAN Conditions

Sorted by: (Station ID)     Click on a column to sort it. Timestamps are in the local station's timezone.
ADD: Station: Ob Time Temps °F   Wind [knots]  
Air (Hi / Lo) DewP Feels RH% Speed Direction Gust @Time Solar Rad
LindsayApr-21-2024 02:00 AM 31(38/31) 9 40 7
Orchard Range SiteApr-21-2024 02:00 AM 45(50/45) 35 69 5
Table MountainApr-21-2024 02:00 AM 34(35/34) 22 63 6
Rodgers FarmApr-21-2024 03:00 AM 27(29/27) 23 85 2
Crescent Lake No1Apr-21-2024 03:00 AM 32(36/32) 22 64 5
Wabeno #1Apr-21-2024 03:00 AM 31(32/31) 20 64 4
MasonApr-21-2024 03:00 AM 33(35/32) 29 84 3
Princeton #1Apr-21-2024 03:00 AM 44(47/44) 29 55 13
Bushland #1Apr-21-2024 03:00 AM 41(44/41) 31 65 11
Tidewater #1Apr-21-2024 04:00 AM 60(64/60) 58 60 92 6
Wakulla #1Apr-21-2024 04:00 AM 65(68/64) 64 65 97 2
Geneva #1Apr-21-2024 04:00 AM 40(41/40) 26 57 6
Sellers Lake #1Apr-21-2024 04:00 AM 62(68/62) 62 62 97 2
Watkinsville #1Apr-21-2024 04:00 AM 57(64/57) 56 57 96 18
Molly Caren #1Apr-21-2024 03:00 AM (/) 0.8G1.428550
Adams Ranch #1Apr-21-2024 02:00 AM 37(38/37) 36 94 12
Prairie View #1Apr-21-2024 03:00 AM 54(62/54) 52 54 94 19
Nunn #1Apr-21-2024 02:00 AM 28(29/28) 27 97 9
Torrington #1Apr-21-2024 02:00 AM 21(22/20) 20 96 3
Fort Assiniboine #1Apr-21-2024 02:00 AM 39(42/39) 19 44 12
Mandan #1Apr-21-2024 04:00 AM 28(33/28) 15 59 8
Lind #1Apr-21-2024 01:00 AM 46(52/46) 31 55 20
Fort Reno #1Apr-21-2024 03:00 AM 43(48/43) 31 61 11
Goodwin Ck PastureApr-21-2024 03:00 AM 52(52/51) 44 52 74 4
Goodwin Ck TimberApr-21-2024 03:00 AM 52(53/52) 45 52 76 1
Walnut Gulch #1Apr-20-2024 09:00 AM 72(72/49) 17 72 12 7
Little RiverApr-21-2024 04:00 AM 68(72/68) 67 68 96 7
Mahantango CkApr-21-2024 04:00 AM 33(42/33) 26 75 8
Uapb-Lonoke FarmApr-21-2024 03:00 AM 53(54/53) 45 53 74 8
AmesApr-21-2024 03:00 AM 30(32/30) 24 78 6
Beasley LakeApr-21-2024 03:00 AM 54(54/53) 49 54 82 8
OnwardApr-21-2024 03:00 AM 53(53/52) 51 53 92 11
TunicaApr-21-2024 03:00 AM 55(55/55) 43 55 64 10
VanceApr-21-2024 03:00 AM 54(54/53) 45 54 71 6
Rock Springs PaApr-21-2024 04:00 AM 28(37/28) 26 90 2
Pee DeeApr-21-2024 04:00 AM 63(66/63) 62 63 98 5
Youmans FarmApr-21-2024 04:00 AM 72(76/71) 65 72 80 6
N Piedmont ArecApr-21-2024 04:00 AM 48(56/48) 29 48 12
Mount MansfieldApr-21-2024 04:00 AM 30(32/30) 25 84
Lye BrookApr-21-2024 04:00 AM 27(31/27) 23 87
Mascoma RiverApr-21-2024 04:00 AM 30(35/29) 26 84
PerthshireApr-21-2024 03:00 AM 54(55/54) 46 54 74 9
SpickardApr-21-2024 03:00 AM 38(41/38) 28 68 4
DexterApr-21-2024 03:00 AM 46(50/46) 29 51 13
Powder MillApr-21-2024 04:00 AM 48(55/48) 28 46 10
Glacial RidgeApr-21-2024 03:00 AM 27(31/27) 20 77 6
Everglades ARSApr-21-2024 04:00 AM 67(71/67) 65 67 95 3
WtarsApr-21-2024 03:00 AM 52(55/52) 35 52 51 13
HodgesApr-21-2024 03:00 AM 51(52/51) 41 51 69 7
Stanley FarmApr-21-2024 03:00 AM 53(53/51) 39 53 59 4
AAMU-JTGApr-21-2024 03:00 AM 52(53/52) 35 52 52 13
Mt VernonApr-19-2024 04:00 AM 48(52/48) 41 76 17
Powell GardensApr-21-2024 03:00 AM 45(45/40) 28 51 5
StarkvilleApr-21-2024 03:00 AM 53(53/53) 50 53 88 7
Bosque SecoApr-21-2024 03:00 AM 70(72/70) 67 70 89
SHAGBARK HILLSApr-21-2024 03:00 AM 34(36/34) 23 64 6
Hubbard BrookApr-21-2024 04:00 AM 32(37/32) 26 78 6
ScottApr-21-2024 03:00 AM 54(55/53) 47 54 77 8
Eros Data CenterApr-21-2024 03:00 AM 29(33/29) 18 63 8
McAllister FarmApr-21-2024 03:00 AM 51(54/51) 33 51 49 13
Allen FarmsApr-21-2024 03:00 AM 53(55/53) 34 53 49 10
Eastview FarmApr-21-2024 03:00 AM 51(54/51) 32 51 48 15
Bragg FarmApr-21-2024 03:00 AM 52(55/52) 34 52 50 13
Mammoth CaveApr-21-2024 03:00 AM 45(45/43) 35 69 3
Tnc Fort BayouApr-21-2024 03:00 AM 63(64/63) 59 63 88
Uapb Campus-PBApr-21-2024 03:00 AM 53(55/53) 45 53 73 8
Uapb-MariannaApr-21-2024 03:00 AM 54(54/54) 43 54 66 9
Uapb-EarleApr-21-2024 03:00 AM 53(55/53) 37 53 53 19
Silver CityApr-21-2024 03:00 AM 53(53/53) 51 53 90 9
North IssaquenaApr-21-2024 03:00 AM 53(53/52) 50 53 87 11
ShenandoahApr-21-2024 04:00 AM 46(48/46) 29 50 9
Reynolds HomesteadApr-21-2024 04:00 AM 51(51/46) 39 51 64 3
Uapb Point RemoveApr-21-2024 03:00 AM 54(56/54) 34 54 46 8
Uapb DewittApr-21-2024 03:00 AM 54(54/53) 45 54 73 6
AbramsApr-21-2024 03:00 AM 44(46/44) 30 58 5
PhillipsburgApr-21-2024 03:00 AM 35(37/35) 32 86 10
Centralia LakeApr-21-2024 03:00 AM 37(42/37) 27 66 3
KainaliuApr-20-2024 10:00 PM 69(74/63) 68 69 99 7
KukuihaeleApr-20-2024 10:00 PM 67(71/65) 65 67 93 14
Waimea PlainApr-20-2024 10:00 PM 56(64/55) 56 56 100 16
Silver SwordApr-20-2024 10:00 PM 49(59/44) 16 27 22
Mana HouseApr-20-2024 10:00 PM 55(71/54) 53 55 95 13
Reese CenterApr-21-2024 03:00 AM 45(45/45) 39 81 14
LevellandApr-21-2024 03:00 AM 45(46/45) 38 76 15
LehmanApr-21-2024 03:00 AM 44(44/44) 33 65 16
CrossroadsApr-21-2024 02:00 AM 43(43/42) 34 72 13
Willow WellsApr-21-2024 02:00 AM 41(41/40) 36 83 15
Sandy RidgeApr-21-2024 03:00 AM 55(55/54) 46 55 73 7
MaydayApr-21-2024 03:00 AM 53(53/53) 50 53 89 11
Johnson FarmApr-21-2024 02:00 AM 30(33/30) 29 98 5
Cullman-NAHRCApr-21-2024 03:00 AM 51(52/50) 40 51 65 13
Livingston-UWAApr-21-2024 03:00 AM 53(54/53) 52 53 97 7
TuskegeeApr-21-2024 03:00 AM 62(64/62) 61 62 98 7
Lovelock NNRApr-21-2024 01:00 AM 42(45/42) 34 74 6
Conrad Ag RcApr-21-2024 02:00 AM 30(31/30) 17 60 6
ViolettApr-21-2024 02:00 AM 32(33/32) 19 58 8
MoccasinApr-21-2024 02:00 AM 34(34/34) 17 49 19
SidneyApr-21-2024 01:00 AM 32(34/32) 14 47 8
JordanApr-21-2024 01:00 AM 26(29/26) 16 63 6
CirclevilleApr-21-2024 02:00 AM 33(35/32) 26 73 5
EphraimApr-21-2024 02:00 AM 40(43/40) 29 63 3
HoldenApr-21-2024 02:00 AM 47(53/47) 32 56 9
EnterpriseApr-21-2024 02:00 AM 37(40/37) 31 80 4
MilfordApr-21-2024 02:00 AM 37(42/37) 31 80 5
EastlandApr-21-2024 02:00 AM 46(46/45) 19 34 11
Green RiverApr-21-2024 02:00 AM 55(65/55) 24 55 30 11
PriceApr-21-2024 02:00 AM 46(50/46) 24 43 7
MorganApr-21-2024 02:00 AM 35(41/35) 27 72 7
Mountain HomeApr-21-2024 02:00 AM 42(42/38) 20 41 9
Blue CreekApr-21-2024 02:00 AM 44(44/42) 24 45 8
Cache JunctionApr-21-2024 02:00 AM 42(43/41) 28 58 5
NephiApr-21-2024 02:00 AM 40(45/40) 29 65 6
Alkali MesaApr-21-2024 02:00 AM 55(57/53) 21 55 26 10
West SummitApr-21-2024 02:00 AM 42(45/42) 19 38 6
Mccracken MesaApr-21-2024 02:00 AM 53(58/53) 21 53 29 8
Kyle CanyonApr-21-2024 01:00 AM 50(50/50) 25 50 38 6
Trough SpringsApr-21-2024 01:00 AM 48(48/48) 24 38 3
Pine NutApr-21-2024 01:00 AM 56(56/56) 25 56 31 6
CharkilnApr-21-2024 01:00 AM 41(42/41) 25 53
Lovell SummitApr-21-2024 01:00 AM 45(45/45) 25 45
Ku-NesaApr-21-2024 03:00 AM 42(44/42) 29 59 7
Jordan Valley CwmaApr-21-2024 01:00 AM 50(52/50) 31 48 6
Marble CreekApr-21-2024 01:00 AM 55(55/55) 25 55 31 7
Chicken RidgeApr-21-2024 02:00 AM 43(43/41) 21 40 4
Buffalo JumpApr-21-2024 02:00 AM 35(39/35) 22 59 5
GrantsvilleApr-21-2024 02:00 AM 45(45/42) 34 66 8
Park ValleyApr-21-2024 02:00 AM 41(42/41) 26 56 7
Split MountainApr-21-2024 02:00 AM 45(52/45) 26 48 8
Little Red FoxApr-21-2024 02:00 AM 43(45/43) 24 48 7
ManderfieldApr-21-2024 02:00 AM 35(40/35) 28 75 6
PanguitchApr-21-2024 02:00 AM 33(36/33) 24 69 4
SpookyApr-21-2024 02:00 AM 52(55/52) 23 52 32 6
Sand HollowApr-21-2024 02:00 AM 60(63/59) 32 60 34 7
Grouse CreekApr-21-2024 02:00 AM 37(39/37) 26 63 6
Cave ValleyApr-21-2024 02:00 AM 39(41/39) 27 62 5
VermillionApr-21-2024 02:00 AM 48(50/48) 23 37 4
Tule ValleyApr-21-2024 02:00 AM 50(57/50) 28 50 43 6
Hals CanyonApr-21-2024 02:00 AM 46(54/45) 26 46 6
GoshuteApr-21-2024 02:00 AM 36(39/36) 25 63 8
Harms WayApr-21-2024 02:00 AM 45(52/45) 19 36 12
DugwayApr-21-2024 02:00 AM 44(55/44) 31 59 9
Jornada Exp RangeApr-21-2024 02:00 AM 57(60/57) 38 57 50 9
Los Lunas PMCApr-21-2024 02:00 AM 53(57/53) 34 53 48 12
SevilletaApr-21-2024 02:00 AM 52(59/52) 12
AlcaldeApr-21-2024 02:00 AM 47(52/47) 31 53 10
Isbell FarmsApr-21-2024 03:00 AM 53(56/53) 34 53 48 11
Dee River RanchApr-21-2024 03:00 AM 54(54/54) 52 54 92 9
WedoweeApr-21-2024 03:00 AM 54(57/54) 52 54 92 9
SelmaApr-21-2024 12:00 AM 60(60/60) 60 60 98
Broad AcresApr-21-2024 03:00 AM 62(63/62) 62 62 97 4
Morris FarmsApr-21-2024 03:00 AM 62(62/62) 62 62 98 3
Sudduth FarmsApr-21-2024 03:00 AM 51(51/51) 45 51 82 5
Koptis FarmsApr-21-2024 03:00 AM 62(66/62) 61 62 95 9
Perdido Riv FarmsApr-21-2024 03:00 AM 61(61/61) 59 61 95 7
River Road FarmsApr-21-2024 03:00 AM 67(71/67) 67 67 98 6
Desert CenterApr-21-2024 01:00 AM 81(84/81) 39 79 22 8
Ford Dry LakeApr-21-2024 01:00 AM 71(74/71) 36 71 28 4
EssexApr-21-2024 01:00 AM 67(67/67) 31 67 26 5
Shadow MtnsApr-21-2024 01:00 AM 58(60/58) 34 58 40 12
Deep SpringsApr-21-2024 01:00 AM 53(57/53) 25 53 33 4
CorozalApr-21-2024 03:00 AM 72(72/71) 70 72 92 0.9G4.814250
Cochora RanchApr-21-2024 01:00 AM 62(62/62) 45 62 53 7
Death Valley JctApr-21-2024 01:00 AM 63(64/63) 36 63 37 5
Doe RidgeApr-21-2024 01:00 AM 43(45/43) 27 53 3
Eagle LakeApr-21-2024 01:00 AM 43(46/43) 36 76 1
Schell-OsageApr-21-2024 03:00 AM 45(47/45) 38 76 3
Journagan RanchApr-21-2024 03:00 AM 46(48/46) 28 50 12
CMRB LTARApr-21-2024 03:00 AM 41(41/39) 32 70 3
PlattevilleApr-21-2024 03:00 AM 30(31/29) 24 78 6
CPERApr-21-2024 02:00 AM 29(29/29) 28 96 9
Cook Farm Field DApr-21-2024 01:00 AM 50(53/50) 35 50 57 29
RieselApr-21-2024 03:00 AM 50(50/49) 46 89 15
San AngeloApr-21-2024 03:00 AM 48(50/48) 46 91 12
Knox CityApr-21-2024 03:00 AM 49(50/49) 46 89 5
VernonApr-21-2024 03:00 AM 49(51/49) 38 67 11
StephenvilleApr-21-2024 03:00 AM 48(48/47) 46 95 15
UvaldeApr-21-2024 03:00 AM 60(62/60) 55 60 84 10
WeslacoApr-21-2024 03:00 AM 76(77/76) 73 76 92 9
KingsvilleApr-21-2024 03:00 AM 66(76/66) 60 66 82 16
BeaumontApr-21-2024 03:00 AM 58(58/57) 57 58 96 13
Kanuti LakeApr-21-2024 12:00 AM 30(30/30)
Checkers CreekApr-20-2024 11:00 PM (/) 15.5G16.917201
Ash ValleyApr-21-2024 01:00 AM 39(42/39) 34 84 5
Bodie HillsApr-21-2024 01:00 AM 36(40/36) 25 64 5
BuckhornApr-21-2024 01:00 AM 43(44/43) 33 66 8
Monocline RidgeApr-21-2024 01:00 AM 70(70/70) 31 70 23 10
French GulchApr-21-2024 01:00 AM 53(53/53) 41 53 64 11
StubblefieldApr-21-2024 01:00 AM 58(59/58) 44 58 60 5
Elsberry PMCApr-21-2024 03:00 AM 36(39/35) 31 83 2
Carver FarmApr-21-2024 03:00 AM 40(44/39) 37 89 2
Busby FarmApr-21-2024 03:00 AM 40(45/39) 35 82 1
Mark Twain HSApr-21-2024 03:00 AM 38(38/34) 33 82 3
Twin Pines ConservationApr-21-2024 03:00 AM 46(49/46) 29 52
Shaw Nature ReserveApr-21-2024 03:00 AM 37(44/37) 31 77 3
NacogdochesApr-21-2024 03:00 AM 51(51/50) 49 51 92 14
RubyApr-21-2024 01:00 AM 33(36/33) 24 72 4
LTSPApr-21-2024 03:00 AM 46(50/46) 28 50 6
Sinkin ForestApr-21-2024 03:00 AM 43(46/43) 27 54 7
MiraderoApr-21-2024 03:00 AM 73(76/73) 70 73 90 2.9G5.98160
ThoreauApr-21-2024 02:00 AM 37(42/37) 24 58 7
VallecitosApr-21-2024 01:00 AM 44(45/44) 38 80 4
AdobeApr-21-2024 12:00 AM 42(42/42) 24 49
RancheriaApr-21-2024 01:00 AM 41(48/41) 29 60 3
Alabama HillsApr-21-2024 01:00 AM 59(59/59) 30 59 34 7


SCAN Soil Conditions

  2 inch 4 inch 8 inch 20 inch 40 inch
Station: Ob Time: Moist:Temp: Moist:Temp: Moist:Temp: Moist:Temp: Moist:Temp:
LindsayApr-21-2024 02:00 -05:00 1439 1340 1542 1342 1442
Orchard Range SiteApr-21-2024 02:00 -05:00 652 1655 1855 1051 1049
Table MountainApr-21-2024 02:00 -05:00 640 1845 3846 2345 944
Rodgers FarmApr-21-2024 03:00 -05:00 2546 2649 3852 4851 3650
Crescent Lake No1Apr-21-2024 03:00 -05:00 1637 1640 2040 1140 740
Wabeno #1Apr-21-2024 03:00 -05:00 2438 2739 2041 1541
MasonApr-21-2024 03:00 -05:00 1251 1151 754 1654 2852
Princeton #1Apr-21-2024 03:00 -05:00 2958 2859 3261 3261 5259
Bushland #1Apr-21-2024 03:00 -05:00 1351 2555 2755 2254 2753
Tidewater #1Apr-21-2024 04:00 -05:00 1965 65 2966 3664 4061
Wakulla #1Apr-21-2024 04:00 -05:00 273 373 574 473 469
Geneva #1Apr-21-2024 04:00 -05:00 3346 3447 3047 3749 4648
Sellers Lake #1Apr-21-2024 04:00 -05:00 377 479 480 578 575
Watkinsville #1Apr-21-2024 04:00 -05:00 1166 1467 1167 1666 1663
Molly Caren #1Apr-21-2024 03:00 -05:00
Adams Ranch #1Apr-21-2024 02:00 -05:00 1155 754 1458 1358 555
Prairie View #1Apr-21-2024 03:00 -05:00 3269 2769 2071 3170 67
Nunn #1Apr-21-2024 02:00 -05:00 2242 1943 1447 1649
Torrington #1Apr-21-2024 02:00 -05:00 1044 747 850 550 449
Fort Assiniboine #1Apr-21-2024 02:00 -05:00 2141 1743 3144 3343 1843
Mandan #1Apr-21-2024 04:00 -05:00 2834 3132 2633 3334 3636
Lind #1Apr-21-2024 01:00 -05:00 658 557 1555 1253 1849
Fort Reno #1Apr-21-2024 03:00 -05:00 1855 3258 3757 3957
Goodwin Ck PastureApr-21-2024 03:00 -05:00 4160 4061 3962 4762 60
Goodwin Ck TimberApr-21-2024 03:00 -05:00 2958 3260 3362 4763 62
Walnut Gulch #1Apr-20-2024 09:00 -05:00
Little RiverApr-21-2024 04:00 -05:00 774 575 1076 1873 3469
Mahantango CkApr-21-2024 04:00 -05:00 2751 3053 2656 2754 1252
Uapb-Lonoke FarmApr-21-2024 03:00 -05:00 4060 3260 3963 4064 4361
AmesApr-21-2024 03:00 -05:00 4944 4446 4546 5346 5345
Beasley LakeApr-21-2024 03:00 -05:00 5661 5459 5662 6065 3463
OnwardApr-21-2024 03:00 -05:00 4160 4162 4163 4164 4260
TunicaApr-21-2024 03:00 -05:00 4260 4362 4663 5564 6561
VanceApr-21-2024 03:00 -05:00
Rock Springs PaApr-21-2024 04:00 -05:00 3046 3649 3450 3351 3648
Pee DeeApr-21-2024 04:00 -05:00 2169 1769 1567 2267 2064
Youmans FarmApr-21-2024 04:00 -05:00 2074 1574 1575 3073 3968
N Piedmont ArecApr-21-2024 04:00 -05:00 2458 2760 3460 4059 4156
Mount MansfieldApr-21-2024 04:00 -05:00 3641 3441 4041 4039 38
Lye BrookApr-21-2024 04:00 -05:00 2539 3540 3939 3238 6237
Mascoma RiverApr-21-2024 04:00 -05:00 4640 3540
PerthshireApr-21-2024 03:00 -05:00 5160 5261 5063 5964 6362
SpickardApr-21-2024 03:00 -05:00 2749 3951 3453 4053 5051
DexterApr-21-2024 03:00 -05:00 2059 2061 2462 2862 2960
Powder MillApr-21-2024 04:00 -05:00 1656 1358 958 2057 2555
Glacial RidgeApr-21-2024 03:00 -05:00 1936 2137 2237 1036 1937
Everglades ARSApr-21-2024 04:00 -05:00 975 877
WtarsApr-21-2024 03:00 -05:00 3660 3863 2164 3664 4160
HodgesApr-21-2024 03:00 -05:00 3062 3764 2864 3863 2561
Stanley FarmApr-21-2024 03:00 -05:00 3458 3266 4067 4165 4162
AAMU-JTGApr-21-2024 03:00 -05:00 58 3662 3964 4464 4959
Mt VernonApr-19-2024 04:00 -05:00 2057 858 2761 2160
Powell GardensApr-21-2024 03:00 -05:00 1558 3261 3662 3362 3957
StarkvilleApr-21-2024 03:00 -05:00 5164 5064 5265 5266 5864
Bosque SecoApr-21-2024 03:00 -05:00 2775 2976
SHAGBARK HILLSApr-21-2024 03:00 -05:00 46 47 49 49 47
Hubbard BrookApr-21-2024 04:00 -05:00 1943 3243 2843 2842 3942
ScottApr-21-2024 03:00 -05:00 4758 4660 4763 5264 4063
Eros Data CenterApr-21-2024 03:00 -05:00 3142 3544 3145 3645 3345
McAllister FarmApr-21-2024 03:00 -05:00 3562 3362 3565 3264 4060
Allen FarmsApr-21-2024 03:00 -05:00 2561 3362 3363 3362 5059
Eastview FarmApr-21-2024 03:00 -05:00 3657 3757 3657 3356 3148
Bragg FarmApr-21-2024 03:00 -05:00 3059 2760 2261 3460 3158
Mammoth CaveApr-21-2024 03:00 -05:00 3658 3660 4059 5460 4956
Tnc Fort BayouApr-21-2024 03:00 -05:00 72 2973 3374 2971 3067
Uapb Campus-PBApr-21-2024 03:00 -05:00 3762 3461 3363 3365 3864
Uapb-MariannaApr-21-2024 03:00 -05:00 3760 4161 3762 64 5062
Uapb-EarleApr-21-2024 03:00 -05:00 3758 3659 4060 4262 4160
Silver CityApr-21-2024 03:00 -05:00 4156 3558 4460 5064 4963
North IssaquenaApr-21-2024 03:00 -05:00 5456 5857 5960 5962 5362
ShenandoahApr-21-2024 04:00 -05:00 2754 2258 2557 58 54
Reynolds HomesteadApr-21-2024 04:00 -05:00 2261 2663 3264 2561 4458
Uapb Point RemoveApr-21-2024 03:00 -05:00 2461 2862 3063 3864 3162
Uapb DewittApr-21-2024 03:00 -05:00 4059 3660 3663 4864 3063
AbramsApr-21-2024 03:00 -05:00 856 1157 1559 3860 2758
PhillipsburgApr-21-2024 03:00 -05:00 1244 1249 1850 2150 1849
Centralia LakeApr-21-2024 03:00 -05:00 3148 3950 3952 4152 3951
KainaliuApr-20-2024 10:00 -05:00 71
KukuihaeleApr-20-2024 10:00 -05:00 2470 3471 3971 4571
Waimea PlainApr-20-2024 10:00 -05:00 2663 2864 2565
Silver SwordApr-20-2024 10:00 -05:00 1051 2558 953
Mana HouseApr-20-2024 10:00 -05:00 1158 1562 3362 1762
Reese CenterApr-21-2024 03:00 -05:00 853 1152 1058 1561 2962
LevellandApr-21-2024 03:00 -05:00 656 1159 1061 1362 1360
LehmanApr-21-2024 03:00 -05:00 954 1356 1060 864 1164
CrossroadsApr-21-2024 02:00 -05:00 758 958 861 1364 1261
Willow WellsApr-21-2024 02:00 -05:00 356 258 462 664 463
Sandy RidgeApr-21-2024 03:00 -05:00 2058 2059 2560 4163 1064
MaydayApr-21-2024 03:00 -05:00 6559 6660 63 6363 6863
Johnson FarmApr-21-2024 02:00 -05:00 1844 2345 2546 1648 1147
Cullman-NAHRCApr-21-2024 03:00 -05:00 3860 3460 2660 3560 3558
Livingston-UWAApr-21-2024 03:00 -05:00 4564 4067 4369 4670 6666
TuskegeeApr-21-2024 03:00 -05:00 1868 1668 1568 2767 3064
Lovelock NNRApr-21-2024 01:00 -05:00 1558 2660 4258
Conrad Ag RcApr-21-2024 02:00 -05:00 2838 3441 3145 3639 2342
ViolettApr-21-2024 02:00 -05:00 2038 2943 3343 642 442
MoccasinApr-21-2024 02:00 -05:00 3139 3141 3342 2542 1642
SidneyApr-21-2024 01:00 -05:00 2340 2741 3040 1440 2039
JordanApr-21-2024 01:00 -05:00 1639 3144 3544 3544 1444
CirclevilleApr-21-2024 02:00 -05:00 952 1753 1053 849 1446
EphraimApr-21-2024 02:00 -05:00 1346 2148 3047 3645 2144
HoldenApr-21-2024 02:00 -05:00 953 1054 1053 1751 1149
EnterpriseApr-21-2024 02:00 -05:00 1255 2958 2655 2153 1949
MilfordApr-21-2024 02:00 -05:00 1658 2357 2155 52 50
EastlandApr-21-2024 02:00 -05:00 1551 2152 2353 3451 2147
Green RiverApr-21-2024 02:00 -05:00 1166 1966 1467 72 356
PriceApr-21-2024 02:00 -05:00 956 1859 2260 1456 752
MorganApr-21-2024 02:00 -05:00 2548 2649 1951 2047 2746
Mountain HomeApr-21-2024 02:00 -05:00 1044 1949 2050 1647
Blue CreekApr-21-2024 02:00 -05:00 2647 2949 3450 3347 2444
Cache JunctionApr-21-2024 02:00 -05:00 2351 3154 4452 4047 4144
NephiApr-21-2024 02:00 -05:00 1450 2051 2250 3048 1647
Alkali MesaApr-21-2024 02:00 -05:00 1556 1357 2357 2653 1751
West SummitApr-21-2024 02:00 -05:00 1752 1953 2454 2550 1846
Mccracken MesaApr-21-2024 02:00 -05:00 1757 2259 2259 1655 753
Kyle CanyonApr-21-2024 01:00 -05:00 1051 1352 754 1451 1347
Trough SpringsApr-21-2024 01:00 -05:00 1749 1651 2051 2547 2148
Pine NutApr-21-2024 01:00 -05:00 1256 1255 1458 2153 949
CharkilnApr-21-2024 01:00 -05:00 2247 1948 2449 3946 4043
Lovell SummitApr-21-2024 01:00 -05:00 2249 3049 2648
Ku-NesaApr-21-2024 03:00 -05:00 3852 3754 3055 4855 6453
Jordan Valley CwmaApr-21-2024 01:00 -05:00 3254 4055 3954
Marble CreekApr-21-2024 01:00 -05:00 1460 1260 1360 654 1352
Chicken RidgeApr-21-2024 02:00 -05:00 1839 2240 2840 2738 3337
Buffalo JumpApr-21-2024 02:00 -05:00 1245 1847 1946 1443
GrantsvilleApr-21-2024 02:00 -05:00 953 1855 1555 52 51
Park ValleyApr-21-2024 02:00 -05:00 949 1751 851 48 51
Split MountainApr-21-2024 02:00 -05:00 955 2256 1956 1153 950
Little Red FoxApr-21-2024 02:00 -05:00 547 1854 1954 2150 1947
ManderfieldApr-21-2024 02:00 -05:00 1352 1452 2751 2248 1046
PanguitchApr-21-2024 02:00 -05:00 1549 2149 1547 1944 4043
SpookyApr-21-2024 02:00 -05:00 464 563 563 960 757
Sand HollowApr-21-2024 02:00 -05:00 168 272 172 068 465
Grouse CreekApr-21-2024 02:00 -05:00 1345 2346 2747 3144 3044
Cave ValleyApr-21-2024 02:00 -05:00 050 656 758 754 750
VermillionApr-21-2024 02:00 -05:00 050 552 1353 1450 1347
Tule ValleyApr-21-2024 02:00 -05:00 70 67 68 59 57
Hals CanyonApr-21-2024 02:00 -05:00 857 1160 862 658 452
GoshuteApr-21-2024 02:00 -05:00 1351 1553 56 51 49
Harms WayApr-21-2024 02:00 -05:00 850 1751 1954 1949 847
DugwayApr-21-2024 02:00 -05:00 55 56 56 51 49
Jornada Exp RangeApr-21-2024 02:00 -05:00 270 373 475 369 464
Los Lunas PMCApr-21-2024 02:00 -05:00
SevilletaApr-21-2024 02:00 -05:00 667 1470 1171 766 660
AlcaldeApr-21-2024 02:00 -05:00 60 64 67 62 54
Isbell FarmsApr-21-2024 03:00 -05:00 3561 4762 5364 5864 6660
Dee River RanchApr-21-2024 03:00 -05:00 60 63 65 66 63
WedoweeApr-21-2024 03:00 -05:00 2964 3464 2264 2963
SelmaApr-21-2024 12:00 -05:00 470 571 572 1370 1467
Broad AcresApr-21-2024 03:00 -05:00 5468 3768 4568 5665 7463
Morris FarmsApr-21-2024 03:00 -05:00 3870 4070 3671 4269 3466
Sudduth FarmsApr-21-2024 03:00 -05:00 3761 3361 3062 3062 3360
Koptis FarmsApr-21-2024 03:00 -05:00 1272 1273 1574 2372
Perdido Riv FarmsApr-21-2024 03:00 -05:00 3673 3473 3668
River Road FarmsApr-21-2024 03:00 -05:00 370 771 2070 2670 4266
Desert CenterApr-21-2024 01:00 -05:00
Ford Dry LakeApr-21-2024 01:00 -05:00 583 1496 1380 876
EssexApr-21-2024 01:00 -05:00 74 73 80 75 71
Shadow MtnsApr-21-2024 01:00 -05:00 368 973 775 1668 1562
Deep SpringsApr-21-2024 01:00 -05:00 1162 1363 1264 1258 1353
CorozalApr-21-2024 03:00 -05:00 5277 5379 5579 5778 5279
Cochora RanchApr-21-2024 01:00 -05:00 1469 1272 1271 1065 1563
Death Valley JctApr-21-2024 01:00 -05:00 573 977 1780 2777 69
Doe RidgeApr-21-2024 01:00 -05:00 559 859 756 952 1352
Eagle LakeApr-21-2024 01:00 -05:00 951 1254 755 1050 844
Schell-OsageApr-21-2024 03:00 -05:00 2457 3660 2861 4860
Journagan RanchApr-21-2024 03:00 -05:00 55 59 58 58
CMRB LTARApr-21-2024 03:00 -05:00 2953 3355 3155 5256 4953
PlattevilleApr-21-2024 03:00 -05:00 4342 4242 3844 4146 5146
CPERApr-21-2024 02:00 -05:00 1640 1241 1742 1147 1348
Cook Farm Field DApr-21-2024 01:00 -05:00 3048 3748 3348 4146 5745
RieselApr-21-2024 03:00 -05:00 63 65 6167 4564
San AngeloApr-21-2024 03:00 -05:00 3060 1463 25
Knox CityApr-21-2024 03:00 -05:00 2857 1558 2060 2564 2064
VernonApr-21-2024 03:00 -05:00 3557 65 63 4262
StephenvilleApr-21-2024 03:00 -05:00 3955 3361 5067 3966
UvaldeApr-21-2024 03:00 -05:00
WeslacoApr-21-2024 03:00 -05:00 1283 1684 2084 2282 1878
KingsvilleApr-21-2024 03:00 -05:00
BeaumontApr-21-2024 03:00 -05:00
Kanuti LakeApr-21-2024 12:00 -05:00 032 032 1631 1430 1830
Checkers CreekApr-20-2024 11:00 -05:00
Ash ValleyApr-21-2024 01:00 -05:00 2053 2655 3455 3750
Bodie HillsApr-21-2024 01:00 -05:00 1441 1547 2045 1340 439
BuckhornApr-21-2024 01:00 -05:00 3646 3646 3944 4639
Monocline RidgeApr-21-2024 01:00 -05:00 3276 2675 3275 3269 3066
French GulchApr-21-2024 01:00 -05:00 958 1761 2159 2654 3149
StubblefieldApr-21-2024 01:00 -05:00 1957 2359 1858 2457 1557
Elsberry PMCApr-21-2024 03:00 -05:00 3852 3653 3657 4257 4954
Carver FarmApr-21-2024 03:00 -05:00 2155 2757 2258 3058 2856
Busby FarmApr-21-2024 03:00 -05:00 2957 3358 3158 3856
Mark Twain HSApr-21-2024 03:00 -05:00 2950 3351 5359 5853
Twin Pines ConservationApr-21-2024 03:00 -05:00 2057 1957 2358 2458 2558
Shaw Nature ReserveApr-21-2024 03:00 -05:00 3058 2259 2362 4058
NacogdochesApr-21-2024 03:00 -05:00 2565 2466 2269 2772
RubyApr-21-2024 01:00 -05:00 2349 2950 3049 3745 4043
LTSPApr-21-2024 03:00 -05:00 1657 1361 1860 3061 4660
Sinkin ForestApr-21-2024 03:00 -05:00 1057 2158 1660 3760 5558
MiraderoApr-21-2024 03:00 -05:00 3077 3480 3882 4183 4482
ThoreauApr-21-2024 02:00 -05:00 58 59 59 55 51
VallecitosApr-21-2024 01:00 -05:00 1756 2557 2657 2758 2857
AdobeApr-21-2024 12:00 -05:00 056 1160 959 751 2048
RancheriaApr-21-2024 01:00 -05:00 1450 1552 1151 1346 2244
Alabama HillsApr-21-2024 01:00 -05:00 65 60